sensor_id;sensor_type;location;lat;lon;timestamp;P1;durP1;ratioP1;P2;durP2;ratioP2
44854;SDS011;30591;48.228;16.398;2023-04-16T10:08:00;2.03;;;1.93;;
44854;SDS011;30591;48.228;16.398;2023-04-16T10:10:28;3.20;;;2.90;;
44854;SDS011;30591;48.228;16.398;2023-04-16T10:12:56;3.10;;;2.90;;
44854;SDS011;30591;48.228;16.398;2023-04-16T10:17:53;3.73;;;3.43;;
44854;SDS011;30591;48.228;16.398;2023-04-16T10:20:21;3.53;;;3.23;;
44854;SDS011;30591;48.228;16.398;2023-04-16T10:22:49;3.90;;;3.17;;
44854;SDS011;30591;48.228;16.398;2023-04-16T10:25:17;4.50;;;3.47;;
44854;SDS011;30591;48.228;16.398;2023-04-16T10:27:45;3.93;;;3.63;;
44854;SDS011;30591;48.228;16.398;2023-04-16T10:30:13;3.80;;;3.50;;
44854;SDS011;30591;48.228;16.398;2023-04-16T10:32:42;4.70;;;4.30;;
44854;SDS011;30591;48.228;16.398;2023-04-16T10:35:13;3.40;;;3.10;;
44854;SDS011;30591;48.228;16.398;2023-04-16T10:37:44;3.13;;;2.93;;
44854;SDS011;30591;48.228;16.398;2023-04-16T10:42:53;3.03;;;2.83;;
44854;SDS011;30591;48.228;16.398;2023-04-16T10:45:25;3.60;;;3.30;;
44854;SDS011;30591;48.228;16.398;2023-04-16T10:47:57;3.90;;;3.60;;
44854;SDS011;30591;48.228;16.398;2023-04-16T10:50:32;4.10;;;3.80;;
44854;SDS011;30591;48.228;16.398;2023-04-16T10:53:21;3.53;;;3.23;;
44854;SDS011;30591;48.228;16.398;2023-04-16T10:56:08;3.77;;;3.30;;
44854;SDS011;30591;48.228;16.398;2023-04-16T10:58:38;3.10;;;2.90;;
44854;SDS011;30591;48.228;16.398;2023-04-16T11:01:06;3.47;;;3.20;;
44854;SDS011;30591;48.228;16.398;2023-04-16T11:03:57;4.03;;;3.70;;
44854;SDS011;30591;48.228;16.398;2023-04-16T11:06:28;4.87;;;4.47;;
44854;SDS011;30591;48.228;16.398;2023-04-16T11:08:55;14.30;;;12.20;;
44854;SDS011;30591;48.228;16.398;2023-04-16T11:11:23;3.87;;;3.57;;
44854;SDS011;30591;48.228;16.398;2023-04-16T11:13:53;3.77;;;3.40;;
44854;SDS011;30591;48.228;16.398;2023-04-16T11:16:23;4.00;;;3.70;;
44854;SDS011;30591;48.228;16.398;2023-04-16T11:18:52;3.23;;;2.93;;
44854;SDS011;30591;48.228;16.398;2023-04-16T11:21:22;2.83;;;2.63;;
44854;SDS011;30591;48.228;16.398;2023-04-16T11:23:50;2.83;;;2.63;;
44854;SDS011;30591;48.228;16.398;2023-04-16T11:26:26;3.10;;;2.90;;
44854;SDS011;30591;48.228;16.398;2023-04-16T11:28:56;2.60;;;2.40;;
44854;SDS011;30591;48.228;16.398;2023-04-16T11:31:24;3.07;;;2.87;;
44854;SDS011;30591;48.228;16.398;2023-04-16T11:33:54;2.57;;;2.37;;
44854;SDS011;30591;48.228;16.398;2023-04-16T11:36:22;2.53;;;2.33;;
44854;SDS011;30591;48.228;16.398;2023-04-16T11:38:59;3.50;;;2.00;;
44854;SDS011;30591;48.228;16.398;2023-04-16T11:41:29;2.75;;;2.05;;
44854;SDS011;30591;48.228;16.398;2023-04-16T11:43:56;3.00;;;2.80;;
44854;SDS011;30591;48.228;16.398;2023-04-16T11:46:24;2.60;;;2.40;;
44854;SDS011;30591;48.228;16.398;2023-04-16T11:49:04;3.38;;;3.17;;
44854;SDS011;30591;48.228;16.398;2023-04-16T11:51:32;2.30;;;2.10;;
44854;SDS011;30591;48.228;16.398;2023-04-16T11:54:04;2.72;;;2.53;;
44854;SDS011;30591;48.228;16.398;2023-04-16T11:56:35;2.80;;;2.60;;
44854;SDS011;30591;48.228;16.398;2023-04-16T12:01:35;2.67;;;2.47;;
44854;SDS011;30591;48.228;16.398;2023-04-16T12:04:03;2.53;;;2.33;;
44854;SDS011;30591;48.228;16.398;2023-04-16T12:06:32;2.60;;;2.40;;
44854;SDS011;30591;48.228;16.398;2023-04-16T12:08:59;3.07;;;2.87;;
44854;SDS011;30591;48.228;16.398;2023-04-16T12:11:50;5.17;;;4.77;;
44854;SDS011;30591;48.228;16.398;2023-04-16T12:14:18;3.77;;;3.47;;
44854;SDS011;30591;48.228;16.398;2023-04-16T12:16:46;4.07;;;3.67;;
44854;SDS011;30591;48.228;16.398;2023-04-16T12:19:13;3.43;;;3.13;;
44854;SDS011;30591;48.228;16.398;2023-04-16T12:21:42;3.60;;;3.30;;
44854;SDS011;30591;48.228;16.398;2023-04-16T12:24:11;3.30;;;3.00;;
44854;SDS011;30591;48.228;16.398;2023-04-16T12:26:44;3.10;;;2.90;;
44854;SDS011;30591;48.228;16.398;2023-04-16T12:29:14;2.87;;;2.67;;
44854;SDS011;30591;48.228;16.398;2023-04-16T12:31:43;3.37;;;3.07;;
44854;SDS011;30591;48.228;16.398;2023-04-16T12:34:11;3.47;;;3.17;;
44854;SDS011;30591;48.228;16.398;2023-04-16T12:36:41;3.80;;;3.50;;
44854;SDS011;30591;48.228;16.398;2023-04-16T12:39:09;2.60;;;2.40;;
44854;SDS011;30591;48.228;16.398;2023-04-16T12:41:38;2.87;;;2.57;;
44854;SDS011;30591;48.228;16.398;2023-04-16T12:46:39;2.70;;;2.50;;
44854;SDS011;30591;48.228;16.398;2023-04-16T12:49:09;2.70;;;2.50;;
44854;SDS011;30591;48.228;16.398;2023-04-16T12:51:37;3.37;;;2.83;;
44854;SDS011;30591;48.228;16.398;2023-04-16T12:54:05;10.17;;;3.33;;
44854;SDS011;30591;48.228;16.398;2023-04-16T12:56:33;2.97;;;2.70;;
44854;SDS011;30591;48.228;16.398;2023-04-16T12:59:02;3.13;;;2.93;;
44854;SDS011;30591;48.228;16.398;2023-04-16T13:01:29;110.27;;;5.97;;
44854;SDS011;30591;48.228;16.398;2023-04-16T13:03:56;65.93;;;5.37;;
44854;SDS011;30591;48.228;16.398;2023-04-16T13:06:24;3.33;;;3.03;;
44854;SDS011;30591;48.228;16.398;2023-04-16T13:08:53;2.73;;;2.53;;
44854;SDS011;30591;48.228;16.398;2023-04-16T13:11:20;3.33;;;2.90;;
44854;SDS011;30591;48.228;16.398;2023-04-16T13:13:47;3.23;;;3.03;;
44854;SDS011;30591;48.228;16.398;2023-04-16T13:16:15;3.77;;;3.47;;
44854;SDS011;30591;48.228;16.398;2023-04-16T13:18:42;6.50;;;5.83;;
44854;SDS011;30591;48.228;16.398;2023-04-16T13:21:09;3.57;;;3.27;;
44854;SDS011;30591;48.228;16.398;2023-04-16T13:23:38;66.87;;;5.87;;
44854;SDS011;30591;48.228;16.398;2023-04-16T13:26:07;5.97;;;2.93;;
44854;SDS011;30591;48.228;16.398;2023-04-16T13:28:34;16.10;;;5.00;;
44854;SDS011;30591;48.228;16.398;2023-04-16T13:31:01;6.53;;;3.60;;
44854;SDS011;30591;48.228;16.398;2023-04-16T13:33:31;75.47;;;8.27;;
44854;SDS011;30591;48.228;16.398;2023-04-16T13:35:58;18.40;;;4.10;;
44854;SDS011;30591;48.228;16.398;2023-04-16T13:38:26;10.90;;;3.93;;
44854;SDS011;30591;48.228;16.398;2023-04-16T13:40:53;21.87;;;6.37;;
44854;SDS011;30591;48.228;16.398;2023-04-16T13:43:20;24.57;;;5.80;;
44854;SDS011;30591;48.228;16.398;2023-04-16T13:45:48;15.27;;;4.43;;
44854;SDS011;30591;48.228;16.398;2023-04-16T13:48:15;10.00;;;3.90;;
44854;SDS011;30591;48.228;16.398;2023-04-16T13:50:43;2.43;;;2.27;;
44854;SDS011;30591;48.228;16.398;2023-04-16T13:53:10;4.23;;;3.93;;
44854;SDS011;30591;48.228;16.398;2023-04-16T13:55:38;2.23;;;2.03;;
44854;SDS011;30591;48.228;16.398;2023-04-16T13:58:05;2.43;;;2.23;;
44854;SDS011;30591;48.228;16.398;2023-04-16T14:00:33;1.73;;;1.60;;
44854;SDS011;30591;48.228;16.398;2023-04-16T14:03:01;2.27;;;2.07;;
44854;SDS011;30591;48.228;16.398;2023-04-16T14:05:31;10.73;;;2.60;;
44854;SDS011;30591;48.228;16.398;2023-04-16T14:07:58;26.47;;;4.90;;
44854;SDS011;30591;48.228;16.398;2023-04-16T14:10:26;18.73;;;3.77;;
44854;SDS011;30591;48.228;16.398;2023-04-16T14:12:53;3.50;;;3.20;;
44854;SDS011;30591;48.228;16.398;2023-04-16T14:15:21;18.97;;;3.47;;
44854;SDS011;30591;48.228;16.398;2023-04-16T14:17:48;7.50;;;3.60;;
44854;SDS011;30591;48.228;16.398;2023-04-16T14:20:16;3.33;;;2.90;;
44854;SDS011;30591;48.228;16.398;2023-04-16T14:22:43;2.97;;;2.77;;
44854;SDS011;30591;48.228;16.398;2023-04-16T14:25:12;5.30;;;3.03;;
44854;SDS011;30591;48.228;16.398;2023-04-16T14:27:39;3.83;;;3.00;;
44854;SDS011;30591;48.228;16.398;2023-04-16T14:30:07;3.37;;;3.07;;
44854;SDS011;30591;48.228;16.398;2023-04-16T14:32:34;2.87;;;2.67;;
44854;SDS011;30591;48.228;16.398;2023-04-16T14:35:03;3.80;;;3.50;;
44854;SDS011;30591;48.228;16.398;2023-04-16T14:37:31;3.43;;;3.20;;
44854;SDS011;30591;48.228;16.398;2023-04-16T14:40:01;4.50;;;4.10;;
44854;SDS011;30591;48.228;16.398;2023-04-16T14:42:34;3.70;;;3.40;;
44854;SDS011;30591;48.228;16.398;2023-04-16T14:45:02;3.67;;;3.30;;
44854;SDS011;30591;48.228;16.398;2023-04-16T14:47:34;3.53;;;3.23;;
44854;SDS011;30591;48.228;16.398;2023-04-16T14:50:04;3.73;;;3.43;;
44854;SDS011;30591;48.228;16.398;2023-04-16T14:52:32;5.40;;;3.33;;
44854;SDS011;30591;48.228;16.398;2023-04-16T14:54:59;3.87;;;3.57;;
44854;SDS011;30591;48.228;16.398;2023-04-16T14:57:27;3.63;;;3.30;;
44854;SDS011;30591;48.228;16.398;2023-04-16T14:59:54;4.77;;;3.23;;
44854;SDS011;30591;48.228;16.398;2023-04-16T15:02:22;3.40;;;3.10;;
44854;SDS011;30591;48.228;16.398;2023-04-16T15:04:49;3.63;;;3.20;;
44854;SDS011;30591;48.228;16.398;2023-04-16T15:07:16;2.80;;;2.60;;
44854;SDS011;30591;48.228;16.398;2023-04-16T15:09:43;4.30;;;3.90;;
44854;SDS011;30591;48.228;16.398;2023-04-16T15:12:11;3.97;;;3.67;;
44854;SDS011;30591;48.228;16.398;2023-04-16T15:14:38;3.70;;;3.30;;
44854;SDS011;30591;48.228;16.398;2023-04-16T15:17:05;4.40;;;4.10;;
44854;SDS011;30591;48.228;16.398;2023-04-16T15:19:33;4.67;;;4.37;;
44854;SDS011;30591;48.228;16.398;2023-04-16T15:22:01;4.27;;;3.97;;
44854;SDS011;30591;48.228;16.398;2023-04-16T15:24:28;3.93;;;3.53;;
44854;SDS011;30591;48.228;16.398;2023-04-16T15:26:55;2.80;;;2.60;;
44854;SDS011;30591;48.228;16.398;2023-04-16T15:29:22;2.90;;;2.70;;
44854;SDS011;30591;48.228;16.398;2023-04-16T15:31:50;4.23;;;3.40;;
44854;SDS011;30591;48.228;16.398;2023-04-16T15:34:17;4.20;;;3.00;;
44854;SDS011;30591;48.228;16.398;2023-04-16T15:36:45;4.17;;;3.77;;
44854;SDS011;30591;48.228;16.398;2023-04-16T15:39:12;3.93;;;3.63;;
44854;SDS011;30591;48.228;16.398;2023-04-16T15:41:39;4.37;;;4.00;;
44854;SDS011;30591;48.228;16.398;2023-04-16T15:44:28;4.27;;;3.83;;
44854;SDS011;30591;48.228;16.398;2023-04-16T15:46:57;6.87;;;5.93;;
44854;SDS011;30591;48.228;16.398;2023-04-16T15:52:18;4.67;;;3.53;;
44854;SDS011;30591;48.228;16.398;2023-04-16T15:54:46;4.17;;;3.77;;
44854;SDS011;30591;48.228;16.398;2023-04-16T15:57:14;3.37;;;3.00;;
44854;SDS011;30591;48.228;16.398;2023-04-16T15:59:41;3.40;;;3.10;;
44854;SDS011;30591;48.228;16.398;2023-04-16T16:02:18;5.93;;;5.33;;
44854;SDS011;30591;48.228;16.398;2023-04-16T16:04:46;8.33;;;7.53;;
44854;SDS011;30591;48.228;16.398;2023-04-16T16:07:14;13.93;;;12.47;;
44854;SDS011;30591;48.228;16.398;2023-04-16T16:09:45;19.80;;;16.73;;
44854;SDS011;30591;48.228;16.398;2023-04-16T16:12:13;14.23;;;12.73;;
44854;SDS011;30591;48.228;16.398;2023-04-16T16:14:41;6.97;;;6.37;;
44854;SDS011;30591;48.228;16.398;2023-04-16T16:17:10;7.97;;;7.17;;
44854;SDS011;30591;48.228;16.398;2023-04-16T16:19:37;4.50;;;4.10;;
44854;SDS011;30591;48.228;16.398;2023-04-16T16:22:04;5.67;;;5.07;;
44854;SDS011;30591;48.228;16.398;2023-04-16T16:24:32;4.40;;;4.00;;
44854;SDS011;30591;48.228;16.398;2023-04-16T16:26:59;4.83;;;4.10;;
44854;SDS011;30591;48.228;16.398;2023-04-16T16:29:27;4.97;;;4.03;;
44854;SDS011;30591;48.228;16.398;2023-04-16T16:31:54;4.07;;;3.40;;
44854;SDS011;30591;48.228;16.398;2023-04-16T16:34:21;8.33;;;7.53;;
44854;SDS011;30591;48.228;16.398;2023-04-16T16:36:49;3.70;;;3.40;;
44854;SDS011;30591;48.228;16.398;2023-04-16T16:39:16;3.07;;;2.87;;
44854;SDS011;30591;48.228;16.398;2023-04-16T16:41:43;4.67;;;4.20;;
44854;SDS011;30591;48.228;16.398;2023-04-16T16:44:11;3.80;;;3.50;;
44854;SDS011;30591;48.228;16.398;2023-04-16T16:46:38;3.27;;;2.97;;
44854;SDS011;30591;48.228;16.398;2023-04-16T16:49:06;3.10;;;2.67;;
44854;SDS011;30591;48.228;16.398;2023-04-16T16:51:36;2.57;;;2.37;;
44854;SDS011;30591;48.228;16.398;2023-04-16T16:54:04;7.70;;;7.10;;
44854;SDS011;30591;48.228;16.398;2023-04-16T16:56:33;3.13;;;2.90;;
44854;SDS011;30591;48.228;16.398;2023-04-16T16:59:00;3.97;;;3.67;;
44854;SDS011;30591;48.228;16.398;2023-04-16T17:01:28;3.10;;;2.80;;
44854;SDS011;30591;48.228;16.398;2023-04-16T17:03:58;3.17;;;2.87;;
44854;SDS011;30591;48.228;16.398;2023-04-16T17:06:26;2.87;;;2.67;;
44854;SDS011;30591;48.228;16.398;2023-04-16T17:08:54;3.30;;;3.00;;
44854;SDS011;30591;48.228;16.398;2023-04-16T17:11:22;3.73;;;3.33;;
44854;SDS011;30591;48.228;16.398;2023-04-16T17:13:53;3.87;;;3.47;;
44854;SDS011;30591;48.228;16.398;2023-04-16T17:16:20;4.13;;;3.47;;
44854;SDS011;30591;48.228;16.398;2023-04-16T17:18:50;3.60;;;3.27;;
44854;SDS011;30591;48.228;16.398;2023-04-16T17:21:17;3.20;;;2.90;;
44854;SDS011;30591;48.228;16.398;2023-04-16T17:23:46;3.53;;;2.90;;
44854;SDS011;30591;48.228;16.398;2023-04-16T17:26:14;3.43;;;3.00;;
